createdAt,value
2022-08-09T00:00:13.801Z,62.10
2022-08-09T00:02:42.918Z,62.40
2022-08-09T00:06:19.162Z,62.60
2022-08-09T00:08:12.998Z,62.70
2022-08-09T00:10:59.335Z,62.30
2022-08-09T00:13:26.423Z,62.60
2022-08-09T00:15:58.815Z,62.60
2022-08-09T00:18:27.014Z,62.70
2022-08-09T00:20:55.718Z,63.00
2022-08-09T00:23:55.199Z,63.10
2022-08-09T00:26:11.179Z,63.30
2022-08-09T00:28:38.980Z,63.10
2022-08-09T00:31:30.709Z,62.90
2022-08-09T00:33:54.813Z,63.70
2022-08-09T00:36:29.577Z,62.90
2022-08-09T00:38:58.046Z,62.90
2022-08-09T00:44:14.881Z,63.20
2022-08-09T00:44:20.635Z,63.40
2022-08-09T00:46:57.701Z,63.60
2022-08-09T00:49:31.782Z,63.70
2022-08-09T00:52:02.049Z,63.80
2022-08-09T00:54:36.236Z,64.10
2022-08-09T00:57:10.272Z,64.00
2022-08-09T00:59:46.670Z,64.10
2022-08-09T01:02:21.786Z,63.90
2022-08-09T01:05:13.968Z,64.20
2022-08-09T01:08:01.187Z,64.40
2022-08-09T01:10:39.391Z,64.10
2022-08-09T01:13:12.613Z,64.30
2022-08-09T01:15:52.150Z,64.70
2022-08-09T01:18:29.766Z,64.30
2022-08-09T01:21:41.182Z,64.30
2022-08-09T01:24:20.831Z,64.00
2022-08-09T01:26:52.767Z,64.40
2022-08-09T01:29:41.323Z,64.70
2022-08-09T01:32:32.698Z,64.70
2022-08-09T01:35:29.136Z,64.80
2022-08-09T01:38:09.273Z,65.00
2022-08-09T01:41:05.156Z,65.10
2022-08-09T01:43:41.949Z,65.30
2022-08-09T01:46:26.975Z,65.20
2022-08-09T01:48:59.923Z,65.10
2022-08-09T01:51:32.168Z,65.30
2022-08-09T01:54:04.174Z,65.30
2022-08-09T01:56:33.213Z,65.60
2022-08-09T01:59:05.755Z,65.70
2022-08-09T02:01:59.208Z,65.80
2022-08-09T02:04:25.487Z,65.70
2022-08-09T02:07:08.614Z,65.80
2022-08-09T02:09:59.491Z,65.80
2022-08-09T02:12:30.757Z,65.90
2022-08-09T02:15:00.624Z,66.00
2022-08-09T02:18:00.652Z,66.10
2022-08-09T02:20:26.562Z,66.20
2022-08-09T02:23:12.623Z,66.00
2022-08-09T02:25:52.635Z,66.20
2022-08-09T02:28:39.357Z,66.40
2022-08-09T02:31:25.879Z,66.30
2022-08-09T02:34:06.526Z,66.10
2022-08-09T02:36:43.496Z,66.30
2022-08-09T02:39:20.332Z,66.30
2022-08-09T02:42:05.750Z,66.50
2022-08-09T02:44:38.915Z,66.60
2022-08-09T02:47:11.855Z,66.70
2022-08-09T02:49:56.998Z,66.80
2022-08-09T02:52:55.291Z,66.90
2022-08-09T02:55:39.369Z,66.90
2022-08-09T02:58:32.604Z,66.80
2022-08-09T03:01:06.294Z,67.00
2022-08-09T03:04:18.239Z,67.00
2022-08-09T03:06:27.465Z,67.20
2022-08-09T03:08:55.934Z,67.20
2022-08-09T03:11:30.094Z,67.20
2022-08-09T03:14:13.452Z,67.40
2022-08-09T03:16:45.011Z,67.40
2022-08-09T03:19:14.294Z,67.60
2022-08-09T03:22:03.340Z,67.70
2022-08-09T03:24:42.817Z,67.70
2022-08-09T03:27:21.589Z,67.80
2022-08-09T03:29:57.958Z,67.80
2022-08-09T03:32:36.902Z,68.10
2022-08-09T03:35:14.796Z,68.20
2022-08-09T03:37:56.707Z,68.10
2022-08-09T03:40:25.598Z,68.20
2022-08-09T03:42:58.118Z,68.00
2022-08-09T03:46:03.912Z,68.00
2022-08-09T03:48:12.590Z,68.10
2022-08-09T03:50:46.777Z,68.20
2022-08-09T03:53:15.662Z,68.10
2022-08-09T03:55:43.134Z,68.40
2022-08-09T03:58:14.975Z,68.60
2022-08-09T04:00:45.547Z,68.70
2022-08-09T04:03:24.528Z,68.80
2022-08-09T04:06:00.758Z,69.00
2022-08-09T04:08:34.862Z,68.90
2022-08-09T04:11:02.772Z,69.10
2022-08-09T04:14:36.881Z,69.20
2022-08-09T04:16:20.720Z,69.00
2022-08-09T04:18:49.243Z,68.90
2022-08-09T04:21:19.219Z,69.00
2022-08-09T04:23:53.917Z,69.00
2022-08-09T04:26:23.214Z,69.00
2022-08-09T04:28:50.357Z,69.00
2022-08-09T04:31:17.749Z,69.10
2022-08-09T04:33:51.953Z,69.30
2022-08-09T04:36:24.524Z,69.40
2022-08-09T04:38:52.257Z,69.50
2022-08-09T04:41:24.018Z,69.60
2022-08-09T04:44:04.950Z,69.60
2022-08-09T04:46:37.958Z,69.70
2022-08-09T04:49:30.113Z,69.70
2022-08-09T04:52:18.357Z,69.60
2022-08-09T04:54:51.743Z,69.60
2022-08-09T04:57:21.586Z,69.60
2022-08-09T04:59:56.344Z,69.80
2022-08-09T05:02:27.496Z,69.90
2022-08-09T05:04:55.592Z,69.90
2022-08-09T05:07:23.644Z,69.90
2022-08-09T05:09:51.298Z,69.90
2022-08-09T05:12:18.584Z,69.90
2022-08-09T05:14:49.653Z,70.10
2022-08-09T05:18:39.039Z,70.20
2022-08-09T05:20:05.314Z,70.50
2022-08-09T05:22:35.047Z,70.40
2022-08-09T05:25:20.074Z,70.60
2022-08-09T05:27:48.502Z,70.70
2022-08-09T05:30:17.841Z,70.80
2022-08-09T05:32:51.033Z,70.90
2022-08-09T05:35:21.985Z,71.00
2022-08-09T05:37:50.830Z,71.10
2022-08-09T05:40:18.388Z,71.30
2022-08-09T05:42:45.599Z,71.30
2022-08-09T05:45:14.329Z,71.40
2022-08-09T05:47:51.628Z,71.50
2022-08-09T05:50:39.891Z,71.50
2022-08-09T05:53:21.578Z,71.60
2022-08-09T05:55:58.902Z,71.50
2022-08-09T05:58:25.749Z,71.40
2022-08-09T06:00:53.780Z,71.40
2022-08-09T06:03:21.163Z,71.50
2022-08-09T06:05:57.734Z,71.60
2022-08-09T06:08:33.405Z,71.80
2022-08-09T06:11:00.859Z,71.80
2022-08-09T06:13:33.847Z,71.80
2022-08-09T06:16:04.827Z,71.90
2022-08-09T06:18:33.476Z,71.90
2022-08-09T06:21:00.567Z,72.00
2022-08-09T06:23:57.809Z,72.00
2022-08-09T06:26:22.476Z,72.10
2022-08-09T06:28:59.880Z,72.00
2022-08-09T06:31:30.708Z,72.10
2022-08-09T06:33:58.521Z,72.20
2022-08-09T06:36:27.300Z,72.20
2022-08-09T06:38:56.941Z,72.30
2022-08-09T06:41:39.620Z,72.40
2022-08-09T06:44:14.348Z,72.50
2022-08-09T06:46:45.752Z,72.40
2022-08-09T06:49:12.811Z,72.40
2022-08-09T06:51:43.052Z,72.50
2022-08-09T06:54:14.979Z,72.50
2022-08-09T06:56:45.436Z,72.40
2022-08-09T07:00:50.101Z,72.40
2022-08-09T07:02:04.667Z,72.50
2022-08-09T07:04:34.887Z,72.40
2022-08-09T07:07:04.938Z,72.30
2022-08-09T07:09:54.874Z,72.30
2022-08-09T07:12:18.814Z,73.40
2022-08-09T07:14:51.188Z,74.50
2022-08-09T07:17:19.943Z,73.60
2022-08-09T07:19:48.072Z,71.60
2022-08-09T07:22:18.944Z,69.20
2022-08-09T07:25:01.637Z,66.80
2022-08-09T07:27:34.478Z,64.20
2022-08-09T07:30:13.445Z,61.90
2022-08-09T07:32:41.314Z,60.10
2022-08-09T07:35:11.881Z,58.90
2022-08-09T07:37:45.635Z,57.50
2022-08-09T07:40:18.586Z,56.60
2022-08-09T07:42:54.928Z,55.50
2022-08-09T07:45:39.787Z,54.50
2022-08-09T07:48:25.243Z,53.30
2022-08-09T07:51:09.987Z,52.60
2022-08-09T07:54:06.552Z,51.70
2022-08-09T07:56:31.412Z,51.30
2022-08-09T07:58:59.591Z,51.00
2022-08-09T08:01:33.108Z,50.10
2022-08-09T08:04:04.797Z,49.80
2022-08-09T08:06:37.549Z,49.50
2022-08-09T08:09:39.948Z,49.40
2022-08-09T08:12:27.929Z,49.40
2022-08-09T08:14:57.101Z,49.60
2022-08-09T08:17:54.106Z,49.70
2022-08-09T08:20:13.858Z,49.90
2022-08-09T08:22:41.967Z,49.90
2022-08-09T08:25:13.622Z,49.70
2022-08-09T08:27:42.883Z,49.20
2022-08-09T08:30:12.010Z,49.60
2022-08-09T08:32:52.896Z,49.60
2022-08-09T08:35:22.349Z,49.70
2022-08-09T08:37:59.642Z,49.50
2022-08-09T08:40:33.513Z,49.30
2022-08-09T08:43:03.437Z,49.30
2022-08-09T08:45:53.309Z,49.10
2022-08-09T08:48:32.323Z,48.80
2022-08-09T08:51:00.094Z,48.40
2022-08-09T08:53:32.218Z,49.10
2022-08-09T08:56:06.897Z,48.00
2022-08-09T08:58:36.075Z,47.60
2022-08-09T09:01:09.165Z,47.20
2022-08-09T09:03:50.423Z,46.80
2022-08-09T09:06:18.513Z,46.80
2022-08-09T09:08:52.333Z,46.60
2022-08-09T09:11:20.609Z,46.20
2022-08-09T09:13:56.642Z,46.20
2022-08-09T09:16:35.082Z,45.90
2022-08-09T09:19:36.917Z,45.80
2022-08-09T09:22:02.973Z,45.40
2022-08-09T09:24:43.890Z,45.70
2022-08-09T09:28:03.018Z,45.70
2022-08-09T09:30:26.167Z,45.30
2022-08-09T09:33:15.339Z,44.50
2022-08-09T09:36:01.637Z,44.40
2022-08-09T09:38:58.256Z,44.50
2022-08-09T09:41:33.025Z,44.70
2022-08-09T09:44:10.641Z,44.50
2022-08-09T09:46:46.014Z,44.10
2022-08-09T09:49:23.617Z,43.30
2022-08-09T09:52:33.401Z,42.10
2022-08-09T09:55:24.004Z,41.70
2022-08-09T09:58:18.335Z,42.50
2022-08-09T10:00:58.949Z,42.20
2022-08-09T10:03:56.354Z,42.10
2022-08-09T10:06:27.413Z,41.80
2022-08-09T10:09:02.959Z,41.10
2022-08-09T10:12:00.015Z,40.50
2022-08-09T10:14:33.069Z,40.40
2022-08-09T10:17:24.302Z,39.80
2022-08-09T10:19:58.865Z,39.80
2022-08-09T10:22:33.497Z,39.50
2022-08-09T10:25:07.022Z,39.20
2022-08-09T10:27:45.292Z,39.00
2022-08-09T10:33:29.563Z,38.70
2022-08-09T10:36:03.474Z,38.30
2022-08-09T10:38:54.855Z,38.00
2022-08-09T10:41:20.693Z,37.40
2022-08-09T10:43:58.556Z,36.90
2022-08-09T10:46:52.332Z,36.30
2022-08-09T10:49:49.949Z,36.30
2022-08-09T10:52:34.726Z,36.60
2022-08-09T10:55:24.111Z,36.50
2022-08-09T10:57:55.478Z,36.80
2022-08-09T11:00:34.588Z,36.10
2022-08-09T11:03:18.624Z,36.20
2022-08-09T11:06:15.901Z,35.50
2022-08-09T11:08:53.104Z,36.40
2022-08-09T11:11:23.051Z,35.30
2022-08-09T11:14:28.174Z,35.00
2022-08-09T11:16:57.647Z,35.50
2022-08-09T11:20:10.964Z,34.60
2022-08-09T11:22:47.222Z,35.10
2022-08-09T11:25:47.947Z,35.00
2022-08-09T11:28:38.681Z,35.50
2022-08-09T11:31:49.850Z,35.00
2022-08-09T11:34:43.224Z,34.80
2022-08-09T11:37:18.306Z,34.50
2022-08-09T11:40:04.327Z,34.10
2022-08-09T11:42:53.198Z,33.80
2022-08-09T11:45:42.561Z,33.70
2022-08-09T11:48:26.733Z,32.90
2022-08-09T11:52:49.558Z,32.70
2022-08-09T11:53:59.966Z,32.40
2022-08-09T11:56:42.619Z,32.80
2022-08-09T11:59:30.402Z,32.80
2022-08-09T12:02:34.039Z,32.90
2022-08-09T12:04:58.953Z,32.40
2022-08-09T12:07:41.702Z,32.60
2022-08-09T12:10:14.155Z,32.10
2022-08-09T12:12:59.039Z,32.10
2022-08-09T12:15:48.643Z,32.20
2022-08-09T12:18:26.227Z,31.80
2022-08-09T12:21:00.554Z,31.70
2022-08-09T12:23:56.394Z,31.30
2022-08-09T12:26:25.880Z,31.10
2022-08-09T12:29:10.433Z,31.10
2022-08-09T12:32:02.258Z,31.50
2022-08-09T12:34:40.515Z,31.30
2022-08-09T12:37:23.912Z,31.10
2022-08-09T12:40:09.005Z,31.20
2022-08-09T12:42:36.522Z,31.30
2022-08-09T12:45:07.122Z,31.40
2022-08-09T12:47:53.932Z,30.50
2022-08-09T12:50:24.875Z,30.40
2022-08-09T12:53:07.978Z,30.60
2022-08-09T12:56:14.242Z,30.80
2022-08-09T12:58:24.244Z,31.00
2022-08-09T13:00:55.582Z,30.80
2022-08-09T13:03:56.921Z,30.80
2022-08-09T13:06:34.638Z,30.70
2022-08-09T13:09:31.180Z,30.10
2022-08-09T13:12:06.374Z,30.30
2022-08-09T13:14:40.942Z,30.60
2022-08-09T13:17:44.274Z,30.20
2022-08-09T13:20:14.068Z,30.20
2022-08-09T13:23:01.804Z,30.10
2022-08-09T13:25:54.410Z,30.00
2022-08-09T13:28:34.684Z,30.10
2022-08-09T13:32:13.912Z,30.40
2022-08-09T13:33:54.477Z,30.40
2022-08-09T13:36:39.552Z,30.40
2022-08-09T13:41:51.667Z,30.10
2022-08-09T13:42:10.958Z,30.20
2022-08-09T13:44:42.050Z,30.40
2022-08-09T13:47:29.012Z,30.30
2022-08-09T13:50:12.703Z,30.00
2022-08-09T13:52:54.246Z,30.50
2022-08-09T13:55:21.209Z,30.20
2022-08-09T13:57:56.161Z,30.00
2022-08-09T14:00:28.490Z,29.90
2022-08-09T14:03:16.930Z,30.00
2022-08-09T14:06:00.432Z,30.00
2022-08-09T14:08:30.349Z,30.00
2022-08-09T14:10:57.259Z,30.30
2022-08-09T14:14:15.540Z,30.20
2022-08-09T14:16:15.158Z,29.80
2022-08-09T14:18:45.876Z,29.90
2022-08-09T14:21:22.580Z,29.60
2022-08-09T14:23:54.056Z,29.40
2022-08-09T14:26:31.826Z,29.60
2022-08-09T14:29:25.831Z,29.30
2022-08-09T14:31:54.948Z,29.30
2022-08-09T14:34:31.955Z,29.50
2022-08-09T14:37:01.640Z,29.30
2022-08-09T14:39:39.957Z,28.90
2022-08-09T14:42:30.260Z,28.80
2022-08-09T14:45:01.493Z,29.00
2022-08-09T14:47:56.856Z,29.20
2022-08-09T14:50:26.080Z,29.10
2022-08-09T14:52:53.928Z,29.10
2022-08-09T14:55:21.621Z,29.20
2022-08-09T14:57:49.421Z,29.50
2022-08-09T15:00:17.241Z,29.80
2022-08-09T15:02:47.468Z,29.80
2022-08-09T15:05:17.007Z,29.80
2022-08-09T15:07:45.495Z,29.70
2022-08-09T15:10:24.790Z,29.80
2022-08-09T15:12:53.372Z,29.90
2022-08-09T15:15:20.461Z,30.00
2022-08-09T15:17:52.576Z,30.10
2022-08-09T15:22:01.174Z,30.00
2022-08-09T15:24:03.579Z,30.10
2022-08-09T15:25:58.244Z,30.40
2022-08-09T15:28:27.747Z,30.50
2022-08-09T15:31:10.124Z,31.40
2022-08-09T15:34:17.440Z,30.60
2022-08-09T15:36:29.335Z,30.70
2022-08-09T15:38:58.988Z,30.70
2022-08-09T15:41:31.811Z,30.90
2022-08-09T15:44:02.088Z,30.90
2022-08-09T15:46:34.003Z,30.70
2022-08-09T15:49:21.657Z,30.80
2022-08-09T15:52:05.088Z,30.80
2022-08-09T15:54:52.245Z,30.70
2022-08-09T15:57:34.711Z,30.60
2022-08-09T16:00:32.144Z,30.30
2022-08-09T16:02:59.157Z,30.50
2022-08-09T16:05:53.050Z,30.40
2022-08-09T16:08:30.749Z,30.30
2022-08-09T16:11:02.358Z,30.20
2022-08-09T16:14:06.094Z,30.30
2022-08-09T16:16:18.976Z,30.00
2022-08-09T16:18:47.185Z,30.30
2022-08-09T16:21:17.066Z,30.40
2022-08-09T16:23:54.923Z,30.40
2022-08-09T16:26:34.629Z,30.40
2022-08-09T16:29:11.219Z,30.50
2022-08-09T16:32:18.708Z,30.70
2022-08-09T16:34:54.379Z,31.10
2022-08-09T16:37:17.775Z,31.00
2022-08-09T16:39:54.790Z,31.10
2022-08-09T16:42:31.567Z,31.20
2022-08-09T16:44:58.312Z,31.30
2022-08-09T16:48:39.961Z,31.30
2022-08-09T16:50:31.646Z,31.30
2022-08-09T16:53:05.851Z,31.40
2022-08-09T16:55:59.859Z,31.70
2022-08-09T16:58:21.085Z,31.80
2022-08-09T17:00:48.562Z,32.00
2022-08-09T17:03:21.671Z,32.20
2022-08-09T17:06:07.903Z,32.30
2022-08-09T17:08:44.724Z,32.80
2022-08-09T17:11:40.133Z,33.00
2022-08-09T17:14:25.467Z,32.90
2022-08-09T17:16:59.923Z,33.10
2022-08-09T17:19:46.554Z,33.40
2022-08-09T17:22:14.501Z,33.60
2022-08-09T17:24:47.901Z,33.80
2022-08-09T17:27:22.145Z,34.00
2022-08-09T17:29:50.619Z,34.30
2022-08-09T17:32:20.441Z,34.50
2022-08-09T17:35:00.962Z,34.60
2022-08-09T17:38:14.445Z,34.70
2022-08-09T17:40:21.573Z,35.00
2022-08-09T17:42:59.514Z,35.10
2022-08-09T17:45:45.516Z,35.40
2022-08-09T17:48:17.375Z,35.60
2022-08-09T17:50:56.433Z,35.70
2022-08-09T17:53:26.232Z,35.90
2022-08-09T17:55:57.623Z,36.10
2022-08-09T17:58:27.894Z,36.20
2022-08-09T18:00:58.282Z,36.40
2022-08-09T18:03:26.410Z,36.80
2022-08-09T18:05:57.288Z,37.00
2022-08-09T18:08:28.143Z,37.00
2022-08-09T18:11:02.379Z,37.20
2022-08-09T18:13:38.925Z,37.40
2022-08-09T18:16:30.421Z,37.70
2022-08-09T18:19:03.852Z,37.70
2022-08-09T18:21:50.210Z,38.00
2022-08-09T18:24:17.989Z,38.00
2022-08-09T18:26:46.637Z,38.20
2022-08-09T18:30:38.341Z,38.60
2022-08-09T18:32:05.463Z,38.80
2022-08-09T18:34:35.460Z,38.90
2022-08-09T18:37:10.176Z,39.20
2022-08-09T18:39:53.612Z,39.40
2022-08-09T18:42:21.185Z,39.30
2022-08-09T18:44:57.089Z,39.50
2022-08-09T18:47:37.364Z,39.90
2022-08-09T18:50:05.912Z,40.10
2022-08-09T18:52:35.127Z,40.40
2022-08-09T18:55:06.246Z,40.40
2022-08-09T18:57:43.530Z,40.70
2022-08-09T19:00:19.178Z,40.90
2022-08-09T19:02:48.611Z,40.90
2022-08-09T19:05:48.767Z,40.90
2022-08-09T19:08:10.149Z,41.30
2022-08-09T19:10:39.133Z,42.10
2022-08-09T19:13:19.764Z,41.80
2022-08-09T19:15:50.116Z,41.90
2022-08-09T19:18:35.048Z,41.90
2022-08-09T19:21:09.945Z,42.10
2022-08-09T19:24:35.416Z,42.00
2022-08-09T19:26:31.288Z,42.50
2022-08-09T19:29:09.389Z,42.40
2022-08-09T19:31:45.657Z,42.70
2022-08-09T19:34:21.582Z,42.80
2022-08-09T19:36:59.281Z,43.20
2022-08-09T19:39:43.478Z,43.30
2022-08-09T19:42:19.692Z,43.20
2022-08-09T19:44:51.464Z,43.50
2022-08-09T19:47:23.768Z,43.70
2022-08-09T19:50:09.218Z,43.90
2022-08-09T19:52:51.715Z,43.80
2022-08-09T19:55:30.786Z,44.20
2022-08-09T19:58:16.392Z,44.30
2022-08-09T20:00:45.629Z,44.40
2022-08-09T20:04:23.696Z,44.40
2022-08-09T20:05:59.830Z,44.40
2022-08-09T20:08:35.148Z,44.40
2022-08-09T20:11:04.118Z,44.50
2022-08-09T20:13:36.774Z,44.90
2022-08-09T20:16:33.819Z,44.70
2022-08-09T20:19:42.880Z,44.90
2022-08-09T20:21:57.002Z,45.00
2022-08-09T20:24:31.686Z,45.10
2022-08-09T20:27:02.368Z,45.30
2022-08-09T20:29:36.981Z,45.40
2022-08-09T20:32:31.225Z,45.70
2022-08-09T20:34:55.046Z,45.90
2022-08-09T20:37:23.278Z,46.00
2022-08-09T20:40:15.015Z,46.10
2022-08-09T20:42:38.016Z,46.20
2022-08-09T20:45:56.662Z,46.40
2022-08-09T20:47:53.283Z,46.60
2022-08-09T20:50:47.054Z,46.70
2022-08-09T20:53:18.601Z,47.00
2022-08-09T20:56:00.816Z,47.20
2022-08-09T20:58:32.512Z,47.50
2022-08-09T21:01:13.982Z,47.70
2022-08-09T21:05:48.461Z,48.00
2022-08-09T21:06:35.832Z,48.50
2022-08-09T21:09:03.338Z,48.60
2022-08-09T21:14:18.125Z,49.30
2022-08-09T21:16:45.621Z,49.30
2022-08-09T21:20:18.482Z,49.70
2022-08-09T21:22:00.177Z,50.40
2022-08-09T21:24:32.751Z,49.80
2022-08-09T21:27:10.447Z,50.30
2022-08-09T21:29:49.255Z,50.60
2022-08-09T21:32:18.739Z,50.50
2022-08-09T21:34:49.200Z,50.90
2022-08-09T21:37:17.978Z,51.00
2022-08-09T21:39:49.683Z,51.20
2022-08-09T21:42:17.386Z,51.30
2022-08-09T21:44:57.425Z,51.50
2022-08-09T21:47:27.400Z,51.80
2022-08-09T21:49:57.173Z,52.00
2022-08-09T21:52:24.128Z,52.30
2022-08-09T21:55:02.970Z,52.40
2022-08-09T21:57:38.611Z,52.60
2022-08-09T22:00:26.196Z,53.50
2022-08-09T22:02:58.093Z,52.70
2022-08-09T22:05:35.410Z,53.10
2022-08-09T22:08:06.263Z,53.30
2022-08-09T22:10:34.141Z,53.40
2022-08-09T22:13:07.470Z,53.50
2022-08-09T22:15:39.200Z,53.70
2022-08-09T22:18:08.296Z,53.80
2022-08-09T22:20:40.067Z,53.90
2022-08-09T22:23:10.582Z,53.90
2022-08-09T22:26:06.309Z,54.10
2022-08-09T22:28:32.407Z,53.90
2022-08-09T22:31:00.310Z,54.10
2022-08-09T22:33:37.447Z,54.40
2022-08-09T22:36:13.761Z,54.40
2022-08-09T22:38:46.488Z,54.20
2022-08-09T22:41:13.262Z,54.20
2022-08-09T22:44:01.665Z,54.60
2022-08-09T22:48:18.731Z,54.90
2022-08-09T22:49:14.074Z,54.80
2022-08-09T22:51:49.628Z,54.90
2022-08-09T22:54:23.586Z,55.10
2022-08-09T22:56:56.797Z,55.00
2022-08-09T22:59:56.774Z,55.00
2022-08-09T23:02:15.170Z,55.20
2022-08-09T23:04:53.990Z,55.20
2022-08-09T23:08:23.215Z,55.30
2022-08-09T23:10:27.959Z,55.40
2022-08-09T23:12:54.808Z,55.40
2022-08-09T23:15:21.694Z,55.20
2022-08-09T23:17:48.452Z,55.30
2022-08-09T23:20:15.343Z,55.60
2022-08-09T23:22:42.080Z,55.50
2022-08-09T23:25:09.350Z,55.60
2022-08-09T23:27:36.653Z,55.60
2022-08-09T23:30:23.380Z,56.00
2022-08-09T23:32:50.180Z,56.00
2022-08-09T23:35:17.193Z,56.10
2022-08-09T23:37:44.026Z,56.30
2022-08-09T23:40:11.414Z,56.50
2022-08-09T23:42:38.237Z,56.40
2022-08-09T23:45:08.844Z,56.50
2022-08-09T23:47:35.769Z,56.40
2022-08-09T23:50:02.569Z,56.60
2022-08-09T23:52:29.379Z,56.70
2022-08-09T23:54:57.695Z,56.80
2022-08-09T23:57:24.408Z,56.60
